LAN112 SMJP-SYCJ
Flight info
| Callsign | LAN112 |
|---|---|
| Flight time | 0h 36m |
| Altitude | 20000 |
| Route | ITASI G443 SISEX |
| Aircraft | A320/M-SDE3FGHIRWY/LB1 |
Departure
| Time | 2026-04-17 20:15 |
|---|---|
| Airport | Johan Adolf Pengel International Airport (SMJP) |
Arrival
| Time | 2026-04-17 20:51 |
|---|---|
| Airport | Cheddi Jagan International Airport (SYCJ) |
| Time | Latitude | Longitude | Altitude | Speed | Heading |
|---|---|---|---|---|---|
| 2026-04-17 20:03 | 5.45509 | -55.19974 | 59 ft | 0 kts | 355° |
| 2026-04-17 20:06 | 5.45494 | -55.19973 | 70 ft | 4 kts | 2° |
| 2026-04-17 20:06 | 5.45469 | -55.19978 | 52 ft | 4 kts | 32° |
| 2026-04-17 20:06 | 5.45455 | -55.19994 | 55 ft | 2 kts | 88° |
| 2026-04-17 20:07 | 5.45455 | -55.19996 | 55 ft | 0 kts | 89° |
| 2026-04-17 20:09 | 5.45455 | -55.19968 | 59 ft | 10 kts | 89° |
| 2026-04-17 20:09 | 5.45455 | -55.19866 | 56 ft | 17 kts | 92° |
| 2026-04-17 20:09 | 5.45446 | -55.19759 | 59 ft | 14 kts | 117° |
| 2026-04-17 20:09 | 5.45366 | -55.19733 | 60 ft | 11 kts | 178° |
| 2026-04-17 20:10 | 5.45301 | -55.19708 | 57 ft | 10 kts | 127° |
| 2026-04-17 20:10 | 5.45286 | -55.19614 | 59 ft | 17 kts | 91° |
| 2026-04-17 20:10 | 5.45284 | -55.19492 | 54 ft | 18 kts | 79° |
| 2026-04-17 20:10 | 5.45288 | -55.19349 | 59 ft | 26 kts | 90° |
| 2026-04-17 20:11 | 5.45289 | -55.19120 | 59 ft | 39 kts | 89° |
| 2026-04-17 20:11 | 5.45291 | -55.18819 | 58 ft | 47 kts | 89° |
| 2026-04-17 20:11 | 5.45290 | -55.18467 | 58 ft | 53 kts | 89° |
| 2026-04-17 20:11 | 5.45293 | -55.18106 | 61 ft | 50 kts | 90° |
| 2026-04-17 20:12 | 5.45294 | -55.17768 | 62 ft | 46 kts | 90° |
| 2026-04-17 20:12 | 5.45296 | -55.17500 | 63 ft | 24 kts | 86° |
| 2026-04-17 20:12 | 5.45346 | -55.17435 | 60 ft | 8 kts | 49° |
| 2026-04-17 20:12 | 5.45381 | -55.17396 | 61 ft | 8 kts | 45° |
| 2026-04-17 20:13 | 5.45432 | -55.17346 | 58 ft | 10 kts | 44° |
| 2026-04-17 20:13 | 5.45461 | -55.17261 | 61 ft | 14 kts | 90° |
| 2026-04-17 20:13 | 5.45388 | -55.17194 | 61 ft | 18 kts | 179° |
| 2026-04-17 20:13 | 5.45302 | -55.17235 | 57 ft | 14 kts | 246° |
| 2026-04-17 20:14 | 5.45296 | -55.17339 | 61 ft | 18 kts | 270° |
| 2026-04-17 20:14 | 5.45294 | -55.17686 | 62 ft | 84 kts | 270° |
| 2026-04-17 20:14 | 5.45291 | -55.18479 | 59 ft | 141 kts | 270° |
| 2026-04-17 20:14 | 5.45286 | -55.19609 | 195 ft | 172 kts | 270° |
| 2026-04-17 20:15 | 5.45281 | -55.20784 | 898 ft | 170 kts | 270° |
| 2026-04-17 20:15 | 5.45269 | -55.22004 | 1353 ft | 183 kts | 271° |
| 2026-04-17 20:15 | 5.45265 | -55.23351 | 1646 ft | 203 kts | 275° |
| 2026-04-17 20:15 | 5.45566 | -55.24813 | 1871 ft | 226 kts | 291° |
| 2026-04-17 20:16 | 5.46154 | -55.26365 | 2236 ft | 250 kts | 295° |
| 2026-04-17 20:16 | 5.46861 | -55.28033 | 2759 ft | 267 kts | 296° |
| 2026-04-17 20:16 | 5.47593 | -55.29776 | 3549 ft | 274 kts | 295° |
| 2026-04-17 20:16 | 5.48317 | -55.31554 | 4430 ft | 277 kts | 294° |
| 2026-04-17 20:17 | 5.49031 | -55.33367 | 5225 ft | 282 kts | 294° |
| 2026-04-17 20:17 | 5.49732 | -55.35191 | 6020 ft | 286 kts | 293° |
| 2026-04-17 20:17 | 5.50440 | -55.37069 | 6791 ft | 289 kts | 292° |
| 2026-04-17 20:17 | 5.51151 | -55.38973 | 7542 ft | 294 kts | 292° |
| 2026-04-17 20:18 | 5.51865 | -55.40899 | 8335 ft | 296 kts | 291° |
| 2026-04-17 20:18 | 5.52586 | -55.42851 | 9058 ft | 301 kts | 291° |
| 2026-04-17 20:18 | 5.53317 | -55.44826 | 9804 ft | 304 kts | 291° |
| 2026-04-17 20:18 | 5.54074 | -55.46866 | 10139 ft | 322 kts | 291° |
| 2026-04-17 20:19 | 5.54887 | -55.49049 | 10308 ft | 345 kts | 291° |
| 2026-04-17 20:19 | 5.55756 | -55.51381 | 10432 ft | 368 kts | 291° |
| 2026-04-17 20:19 | 5.56673 | -55.53845 | 10671 ft | 383 kts | 291° |
| 2026-04-17 20:19 | 5.57615 | -55.56381 | 11108 ft | 392 kts | 290° |
| 2026-04-17 20:20 | 5.58569 | -55.58953 | 11715 ft | 394 kts | 290° |
| 2026-04-17 20:20 | 5.59530 | -55.61544 | 12261 ft | 398 kts | 290° |
| 2026-04-17 20:20 | 5.60504 | -55.64163 | 12778 ft | 403 kts | 290° |
| 2026-04-17 20:20 | 5.61486 | -55.66805 | 13363 ft | 406 kts | 290° |
| 2026-04-17 20:21 | 5.62477 | -55.69474 | 13865 ft | 410 kts | 290° |
| 2026-04-17 20:21 | 5.63471 | -55.72157 | 14411 ft | 411 kts | 290° |
| 2026-04-17 20:21 | 5.64469 | -55.74845 | 14946 ft | 412 kts | 290° |
| 2026-04-17 20:21 | 5.65472 | -55.77548 | 15466 ft | 414 kts | 290° |
| 2026-04-17 20:22 | 5.66475 | -55.80255 | 16046 ft | 413 kts | 290° |
| 2026-04-17 20:22 | 5.67469 | -55.82960 | 16617 ft | 414 kts | 290° |
| 2026-04-17 20:22 | 5.68425 | -55.85684 | 17204 ft | 413 kts | 289° |
| 2026-04-17 20:22 | 5.69345 | -55.88411 | 17817 ft | 411 kts | 289° |
| 2026-04-17 20:23 | 5.70247 | -55.91137 | 18292 ft | 413 kts | 288° |
| 2026-04-17 20:23 | 5.71151 | -55.93887 | 18658 ft | 416 kts | 288° |
| 2026-04-17 20:23 | 5.72051 | -55.96610 | 19065 ft | 417 kts | 288° |
| 2026-04-17 20:23 | 5.72977 | -55.99388 | 19372 ft | 422 kts | 288° |
| 2026-04-17 20:24 | 5.73921 | -56.02192 | 19696 ft | 426 kts | 288° |
| 2026-04-17 20:24 | 5.74878 | -56.05012 | 19803 ft | 429 kts | 288° |
| 2026-04-17 20:24 | 5.75853 | -56.07884 | 19835 ft | 439 kts | 288° |
| 2026-04-17 20:24 | 5.76848 | -56.10818 | 19833 ft | 449 kts | 288° |
| 2026-04-17 20:25 | 5.77861 | -56.13808 | 19834 ft | 455 kts | 288° |
| 2026-04-17 20:25 | 5.78880 | -56.16825 | 19836 ft | 456 kts | 288° |
| 2026-04-17 20:25 | 5.79896 | -56.19841 | 19834 ft | 456 kts | 288° |
| 2026-04-17 20:25 | 5.80915 | -56.22870 | 19836 ft | 458 kts | 288° |
| 2026-04-17 20:26 | 5.81935 | -56.25895 | 19835 ft | 458 kts | 288° |
| 2026-04-17 20:26 | 5.82960 | -56.28925 | 19835 ft | 459 kts | 288° |
| 2026-04-17 20:26 | 5.83987 | -56.31966 | 19833 ft | 460 kts | 288° |
| 2026-04-17 20:26 | 5.85012 | -56.35010 | 19835 ft | 459 kts | 287° |
| 2026-04-17 20:27 | 5.86032 | -56.38041 | 19832 ft | 458 kts | 288° |
| 2026-04-17 20:27 | 5.87051 | -56.41067 | 19827 ft | 457 kts | 288° |
| 2026-04-17 20:27 | 5.88069 | -56.44093 | 19829 ft | 457 kts | 288° |
| 2026-04-17 20:27 | 5.89084 | -56.47117 | 19828 ft | 457 kts | 288° |
| 2026-04-17 20:28 | 5.90102 | -56.50148 | 19825 ft | 458 kts | 288° |
| 2026-04-17 20:28 | 5.91120 | -56.53176 | 19827 ft | 458 kts | 288° |
| 2026-04-17 20:28 | 5.92139 | -56.56207 | 19826 ft | 458 kts | 288° |
| 2026-04-17 20:28 | 5.93158 | -56.59240 | 19826 ft | 459 kts | 288° |
| 2026-04-17 20:29 | 5.94178 | -56.62277 | 19825 ft | 459 kts | 288° |
| 2026-04-17 20:29 | 5.95199 | -56.65313 | 19831 ft | 459 kts | 288° |
| 2026-04-17 20:29 | 5.96221 | -56.68349 | 19831 ft | 459 kts | 288° |
| 2026-04-17 20:29 | 5.97243 | -56.71385 | 19838 ft | 459 kts | 287° |
| 2026-04-17 20:30 | 5.99283 | -56.77452 | 19840 ft | 458 kts | 288° |
| 2026-04-17 20:30 | 6.00301 | -56.80485 | 19839 ft | 458 kts | 287° |
| 2026-04-17 20:30 | 6.01307 | -56.83477 | 19837 ft | 459 kts | 288° |
| 2026-04-17 20:31 | 6.02331 | -56.86514 | 19832 ft | 459 kts | 287° |
| 2026-04-17 20:31 | 6.03367 | -56.89591 | 19831 ft | 459 kts | 288° |
| 2026-04-17 20:31 | 6.04375 | -56.92588 | 19836 ft | 459 kts | 288° |
| 2026-04-17 20:31 | 6.05392 | -56.95625 | 19833 ft | 459 kts | 287° |
| 2026-04-17 20:32 | 6.06408 | -56.98660 | 19834 ft | 459 kts | 287° |
| 2026-04-17 20:32 | 6.07428 | -57.01697 | 19838 ft | 458 kts | 287° |
| 2026-04-17 20:32 | 6.08451 | -57.04729 | 19837 ft | 458 kts | 288° |
| 2026-04-17 20:32 | 6.09477 | -57.07765 | 19834 ft | 459 kts | 288° |
| 2026-04-17 20:33 | 6.10502 | -57.10797 | 19838 ft | 459 kts | 288° |
| 2026-04-17 20:33 | 6.11529 | -57.13833 | 19829 ft | 459 kts | 288° |
| 2026-04-17 20:33 | 6.12224 | -57.15889 | 19827 ft | 459 kts | 288° |
| 2026-04-17 20:33 | 6.13582 | -57.19913 | 19833 ft | 459 kts | 288° |
| 2026-04-17 20:34 | 6.14275 | -57.21964 | 19837 ft | 459 kts | 288° |
| 2026-04-17 20:34 | 6.15304 | -57.25003 | 19836 ft | 459 kts | 287° |
| 2026-04-17 20:34 | 6.16335 | -57.28039 | 19841 ft | 459 kts | 288° |
| 2026-04-17 20:34 | 6.17364 | -57.31076 | 19841 ft | 459 kts | 287° |
| 2026-04-17 20:35 | 6.18391 | -57.34113 | 19838 ft | 459 kts | 288° |
| 2026-04-17 20:35 | 6.19415 | -57.37150 | 19840 ft | 459 kts | 288° |
| 2026-04-17 20:35 | 6.20425 | -57.40150 | 19839 ft | 459 kts | 288° |
| 2026-04-17 20:35 | 6.21447 | -57.43191 | 19835 ft | 460 kts | 288° |
| 2026-04-17 20:36 | 6.22473 | -57.46236 | 19711 ft | 460 kts | 287° |
| 2026-04-17 20:36 | 6.23498 | -57.49268 | 19479 ft | 457 kts | 287° |
| 2026-04-17 20:36 | 6.24517 | -57.52283 | 19249 ft | 455 kts | 288° |
| 2026-04-17 20:36 | 6.25527 | -57.55282 | 18623 ft | 451 kts | 288° |
| 2026-04-17 20:37 | 6.26529 | -57.58257 | 17882 ft | 446 kts | 288° |
| 2026-04-17 20:37 | 6.27521 | -57.61205 | 16970 ft | 445 kts | 289° |
| 2026-04-17 20:37 | 6.28511 | -57.64142 | 16234 ft | 441 kts | 289° |
| 2026-04-17 20:37 | 6.29494 | -57.67053 | 15516 ft | 439 kts | 289° |
| 2026-04-17 20:38 | 6.30473 | -57.69952 | 14812 ft | 437 kts | 289° |
| 2026-04-17 20:38 | 6.31447 | -57.72840 | 14119 ft | 436 kts | 289° |
| 2026-04-17 20:38 | 6.32400 | -57.75729 | 13421 ft | 435 kts | 286° |
| 2026-04-17 20:38 | 6.32951 | -57.78703 | 12718 ft | 432 kts | 275° |
| 2026-04-17 20:39 | 6.32943 | -57.81703 | 12045 ft | 427 kts | 265° |
| 2026-04-17 20:39 | 6.32700 | -57.84667 | 11367 ft | 424 kts | 265° |
| 2026-04-17 20:39 | 6.32463 | -57.87579 | 11092 ft | 409 kts | 265° |
| 2026-04-17 20:39 | 6.32236 | -57.90371 | 10968 ft | 391 kts | 265° |
| 2026-04-17 20:40 | 6.32022 | -57.93005 | 10850 ft | 375 kts | 265° |
| 2026-04-17 20:40 | 6.31813 | -57.95597 | 10732 ft | 360 kts | 265° |
| 2026-04-17 20:40 | 6.31616 | -57.98020 | 10615 ft | 346 kts | 265° |
| 2026-04-17 20:40 | 6.31425 | -58.00384 | 10499 ft | 333 kts | 265° |
| 2026-04-17 20:41 | 6.31241 | -58.02665 | 10381 ft | 322 kts | 265° |
| 2026-04-17 20:41 | 6.31064 | -58.04874 | 10208 ft | 313 kts | 265° |
| 2026-04-17 20:41 | 6.30887 | -58.07039 | 9994 ft | 310 kts | 265° |
| 2026-04-17 20:41 | 6.30712 | -58.09193 | 9846 ft | 308 kts | 265° |
| 2026-04-17 20:42 | 6.30536 | -58.11334 | 9351 ft | 308 kts | 265° |
| 2026-04-17 20:42 | 6.30362 | -58.13462 | 8740 ft | 302 kts | 266° |
| 2026-04-17 20:42 | 6.30193 | -58.15552 | 8153 ft | 298 kts | 266° |
| 2026-04-17 20:42 | 6.30021 | -58.17646 | 7619 ft | 303 kts | 265° |
| 2026-04-17 20:43 | 6.29845 | -58.19741 | 7192 ft | 298 kts | 266° |
| 2026-04-17 20:43 | 6.29672 | -58.21811 | 6543 ft | 296 kts | 267° |
| 2026-04-17 20:43 | 6.29505 | -58.23857 | 5976 ft | 290 kts | 266° |
| 2026-04-17 20:43 | 6.29344 | -58.25860 | 5410 ft | 286 kts | 266° |
| 2026-04-17 20:44 | 6.29184 | -58.27839 | 4887 ft | 282 kts | 266° |
| 2026-04-17 20:44 | 6.29037 | -58.29794 | 4360 ft | 279 kts | 272° |
| 2026-04-17 20:44 | 6.29311 | -58.31705 | 4010 ft | 272 kts | 291° |
| 2026-04-17 20:44 | 6.30105 | -58.33339 | 3948 ft | 251 kts | 309° |
| 2026-04-17 20:45 | 6.31218 | -58.34605 | 3876 ft | 235 kts | 319° |
| 2026-04-17 20:45 | 6.32348 | -58.35736 | 3772 ft | 224 kts | 319° |
| 2026-04-17 20:45 | 6.33476 | -58.36750 | 3677 ft | 211 kts | 331° |
| 2026-04-17 20:45 | 6.34746 | -58.37341 | 3617 ft | 193 kts | 348° |
| 2026-04-17 20:46 | 6.35997 | -58.37511 | 3499 ft | 177 kts | 4° |
| 2026-04-17 20:46 | 6.37153 | -58.37348 | 3246 ft | 161 kts | 18° |
| 2026-04-17 20:46 | 6.38169 | -58.36911 | 2947 ft | 159 kts | 30° |
| 2026-04-17 20:46 | 6.39027 | -58.36229 | 2697 ft | 157 kts | 44° |
| 2026-04-17 20:47 | 6.39812 | -58.35445 | 2487 ft | 159 kts | 44° |
| 2026-04-17 20:47 | 6.40581 | -58.34678 | 2274 ft | 151 kts | 46° |
| 2026-04-17 20:47 | 6.41301 | -58.33960 | 2082 ft | 143 kts | 44° |
| 2026-04-17 20:47 | 6.41998 | -58.33265 | 1908 ft | 141 kts | 43° |
| 2026-04-17 20:48 | 6.42688 | -58.32575 | 1726 ft | 138 kts | 44° |
| 2026-04-17 20:48 | 6.43378 | -58.31887 | 1554 ft | 141 kts | 45° |
| 2026-04-17 20:48 | 6.44066 | -58.31200 | 1365 ft | 138 kts | 44° |
| 2026-04-17 20:48 | 6.44760 | -58.30506 | 1185 ft | 142 kts | 45° |
| 2026-04-17 20:49 | 6.45450 | -58.29818 | 1014 ft | 140 kts | 45° |
| 2026-04-17 20:49 | 6.46137 | -58.29132 | 842 ft | 138 kts | 45° |
| 2026-04-17 20:49 | 6.46818 | -58.28452 | 676 ft | 139 kts | 46° |
| 2026-04-17 20:49 | 6.47501 | -58.27769 | 488 ft | 137 kts | 42° |
| 2026-04-17 20:50 | 6.48178 | -58.27092 | 330 ft | 137 kts | 46° |
| 2026-04-17 20:50 | 6.48855 | -58.26417 | 210 ft | 135 kts | 45° |
| 2026-04-17 20:50 | 6.49515 | -58.25755 | 111 ft | 128 kts | 45° |
| 2026-04-17 20:50 | 6.50053 | -58.25217 | 99 ft | 86 kts | 44° |
| 2026-04-17 20:51 | 6.50354 | -58.24917 | 92 ft | 36 kts | 44° |
| 2026-04-17 20:51 | 6.50496 | -58.24776 | 92 ft | 28 kts | 45° |
| 2026-04-17 20:51 | 6.50614 | -58.24666 | 89 ft | 13 kts | 24° |
| 2026-04-17 20:51 | 6.50656 | -58.24718 | 88 ft | 11 kts | 268° |
| 2026-04-17 20:52 | 6.50630 | -58.24782 | 90 ft | 9 kts | 240° |
| 2026-04-17 20:52 | 6.50598 | -58.24826 | 92 ft | 7 kts | 230° |
| 2026-04-17 20:52 | 6.50540 | -58.24886 | 91 ft | 18 kts | 225° |
| 2026-04-17 20:52 | 6.50432 | -58.24994 | 92 ft | 23 kts | 224° |
| 2026-04-17 20:53 | 6.50346 | -58.25082 | 94 ft | 10 kts | 234° |
| 2026-04-17 20:53 | 6.50351 | -58.25139 | 96 ft | 7 kts | 274° |
| 2026-04-17 20:53 | 6.50329 | -58.25173 | 95 ft | 5 kts | 226° |
| 2026-04-17 20:53 | 6.50297 | -58.25207 | 96 ft | 9 kts | 225° |
| 2026-04-17 20:54 | 6.50290 | -58.25246 | 97 ft | 4 kts | 287° |
| 2026-04-17 20:54 | 6.50303 | -58.25260 | 98 ft | 2 kts | 320° |
| 2026-04-17 20:54 | 6.50306 | -58.25264 | 98 ft | 0 kts | 317° |
| 2026-04-17 20:54 | 6.50308 | -58.25265 | 98 ft | 0 kts | 316° |